Terminal Aerodrome Forecast
Issued by NWS Rapid City, SD

Home | Current Version | Previous Version | Text Only | Print | Product List | Glossary On
Versions: 1 2 3 4 5 6 7 8 9 10 11 12 13 14 15 16 17 18 19 20 21 22 23
000
FTUS43 KUNR 222349 CCA
TAFRAP
TAF COR
KRAP 222349Z 2300/2324 36025G35KT P6SM BKN025
     FM230200 01014KT P6SM OVC025
     FM231200 03015KT 2SM -SN OVC015
     FM231500 03017KT 1/2SM SN OVC010=

USA.gov is the U.S. government's official web portal to all federal, state and local government web resources and services.